createdAt,value
2022-08-28T00:01:23.562Z,18.85
2022-08-28T00:03:25.346Z,16.95
2022-08-28T00:05:30.008Z,16.17
2022-08-28T00:07:31.971Z,15.18
2022-08-28T00:09:33.990Z,15.32
2022-08-28T00:11:35.789Z,14.65
2022-08-28T00:13:38.416Z,14.27
2022-08-28T00:15:40.176Z,14.70
2022-08-28T00:17:41.965Z,14.18
2022-08-28T00:19:43.813Z,15.23
2022-08-28T00:21:46.662Z,13.80
2022-08-28T00:23:48.418Z,13.40
2022-08-28T00:25:50.133Z,13.80
2022-08-28T00:27:57.000Z,12.40
2022-08-28T00:29:58.789Z,12.63
2022-08-28T00:32:00.942Z,12.70
2022-08-28T00:34:02.775Z,13.95
2022-08-28T00:36:04.672Z,13.40
2022-08-28T00:38:07.567Z,13.68
2022-08-28T00:40:11.409Z,13.15
2022-08-28T00:42:13.453Z,12.77
2022-08-28T00:44:19.417Z,12.90
2022-08-28T00:46:23.854Z,12.40
2022-08-28T00:48:25.722Z,12.77
2022-08-28T00:50:32.159Z,12.68
2022-08-28T00:52:34.308Z,13.40
2022-08-28T00:54:50.506Z,11.80
2022-08-28T00:57:06.273Z,12.25
2022-08-28T00:59:11.905Z,12.80
2022-08-28T01:01:14.680Z,13.40
2022-08-28T01:03:16.455Z,12.77
2022-08-28T01:05:19.289Z,12.88
2022-08-28T01:07:21.197Z,12.77
2022-08-28T01:09:26.849Z,12.68
2022-08-28T01:11:29.951Z,13.43
2022-08-28T01:13:32.812Z,13.60
2022-08-28T01:15:37.349Z,13.10
2022-08-28T01:17:43.790Z,12.82
2022-08-28T01:19:53.432Z,12.65
2022-08-28T01:22:07.210Z,12.38
2022-08-28T01:24:16.267Z,12.38
2022-08-28T01:26:18.462Z,12.10
2022-08-28T01:28:20.343Z,11.98
2022-08-28T01:30:23.400Z,12.38
2022-08-28T01:32:53.368Z,12.20
2022-08-28T01:34:55.191Z,12.45
2022-08-28T01:36:57.519Z,11.85
2022-08-28T01:39:09.591Z,11.27
2022-08-28T01:41:12.482Z,11.30
2022-08-28T01:43:23.069Z,12.05
2022-08-28T01:45:24.983Z,12.40
2022-08-28T01:47:26.754Z,11.55
2022-08-28T01:49:28.539Z,11.82
2022-08-28T01:51:31.448Z,10.60
2022-08-28T01:53:37.937Z,10.85
2022-08-28T01:55:40.287Z,11.63
2022-08-28T01:57:50.464Z,11.90
2022-08-28T01:59:52.524Z,11.15
2022-08-28T02:01:54.431Z,12.60
2022-08-28T02:03:56.671Z,11.38
2022-08-28T02:05:58.524Z,12.52
2022-08-28T02:08:02.575Z,11.23
2022-08-28T02:10:06.448Z,12.60
2022-08-28T02:12:08.365Z,13.40
2022-08-28T02:14:10.119Z,12.43
2022-08-28T02:16:11.963Z,13.05
2022-08-28T02:18:13.915Z,12.68
2022-08-28T02:20:16.047Z,10.82
2022-08-28T02:22:18.340Z,11.40
2022-08-28T02:24:20.163Z,11.73
2022-08-28T02:26:21.976Z,11.85
2022-08-28T02:28:23.853Z,11.18
2022-08-28T02:30:25.657Z,10.90
2022-08-28T02:32:27.474Z,9.50
2022-08-28T02:34:29.234Z,10.20
2022-08-28T02:36:30.961Z,10.65
2022-08-28T02:38:32.694Z,9.75
2022-08-28T02:40:34.842Z,10.55
2022-08-28T02:42:36.973Z,9.95
2022-08-28T02:44:38.867Z,9.20
2022-08-28T02:46:40.645Z,9.60
2022-08-28T02:48:42.551Z,9.65
2022-08-28T02:50:44.971Z,9.73
2022-08-28T02:52:46.964Z,10.63
2022-08-28T02:54:48.783Z,10.75
2022-08-28T02:56:50.678Z,10.80
2022-08-28T02:58:52.413Z,10.88
2022-08-28T03:00:56.607Z,11.10
2022-08-28T03:02:58.449Z,10.98
2022-08-28T03:05:00.221Z,11.38
2022-08-28T03:07:01.992Z,11.50
2022-08-28T03:09:05.060Z,12.20
2022-08-28T03:11:06.845Z,12.52
2022-08-28T03:13:08.585Z,12.15
2022-08-28T03:15:10.758Z,12.40
2022-08-28T03:17:12.511Z,11.50
2022-08-28T03:19:14.237Z,11.93
2022-08-28T03:21:16.245Z,12.10
2022-08-28T03:23:17.967Z,11.98
2022-08-28T03:25:19.915Z,12.27
2022-08-28T03:27:21.913Z,11.80
2022-08-28T03:29:23.677Z,13.00
2022-08-28T03:31:27.958Z,12.50
2022-08-28T03:33:29.785Z,13.30
2022-08-28T03:35:31.610Z,12.45
2022-08-28T03:37:33.425Z,14.77
2022-08-28T03:39:35.214Z,14.80
2022-08-28T03:41:36.960Z,14.73
2022-08-28T03:43:43.869Z,14.60
2022-08-28T03:46:01.885Z,13.52
2022-08-28T03:48:05.015Z,13.52
2022-08-28T03:50:07.861Z,12.65
2022-08-28T03:52:12.756Z,12.65
2022-08-28T03:54:14.528Z,14.05
2022-08-28T03:56:19.459Z,14.07
2022-08-28T03:58:21.494Z,13.60
2022-08-28T04:00:23.330Z,12.55
2022-08-28T04:02:25.075Z,13.70
2022-08-28T04:04:26.895Z,12.88
2022-08-28T04:06:28.707Z,13.27
2022-08-28T04:08:30.495Z,13.98
2022-08-28T04:10:32.368Z,15.25
2022-08-28T04:12:35.251Z,16.33
2022-08-28T04:14:37.609Z,14.90
2022-08-28T04:16:39.447Z,15.35
2022-08-28T04:18:43.039Z,16.23
2022-08-28T04:22:48.791Z,15.50
2022-08-28T04:24:56.903Z,14.82
2022-08-28T04:26:58.699Z,14.23
2022-08-28T04:29:00.463Z,14.85
2022-08-28T04:31:02.730Z,15.23
2022-08-28T04:33:04.513Z,14.35
2022-08-28T04:35:08.643Z,14.60
2022-08-28T04:37:10.473Z,14.05
2022-08-28T04:39:12.222Z,13.68
2022-08-28T04:41:16.218Z,14.25
2022-08-28T04:43:17.994Z,13.73
2022-08-28T04:45:19.740Z,12.55
2022-08-28T04:47:21.503Z,13.20
2022-08-28T04:49:23.379Z,12.98
2022-08-28T04:51:28.794Z,12.73
2022-08-28T04:53:30.610Z,13.40
2022-08-28T04:55:53.515Z,12.70
2022-08-28T04:57:54.067Z,13.23
2022-08-28T04:59:55.862Z,12.95
2022-08-28T05:01:57.652Z,13.13
2022-08-28T05:04:01.842Z,12.60
2022-08-28T05:06:04.068Z,11.82
2022-08-28T05:08:05.788Z,11.88
2022-08-28T05:10:07.910Z,12.18
2022-08-28T05:12:09.679Z,12.25
2022-08-28T05:14:15.921Z,12.57
2022-08-28T05:16:19.843Z,11.88
2022-08-28T05:20:24.282Z,11.48
2022-08-28T05:22:26.041Z,11.70
2022-08-28T05:24:27.878Z,11.02
2022-08-28T05:26:30.192Z,10.13
2022-08-28T05:28:32.072Z,10.18
2022-08-28T05:30:34.069Z,9.88
2022-08-28T05:32:36.369Z,10.18
2022-08-28T05:34:38.095Z,10.15
2022-08-28T05:36:40.188Z,9.82
2022-08-28T05:38:42.371Z,10.20
2022-08-28T05:40:48.872Z,10.32
2022-08-28T05:42:51.475Z,9.90
2022-08-28T05:44:54.752Z,9.40
2022-08-28T05:46:56.568Z,9.40
2022-08-28T05:48:58.380Z,9.68
2022-08-28T05:51:13.646Z,8.95
2022-08-28T05:53:16.934Z,9.23
2022-08-28T05:55:18.771Z,9.65
2022-08-28T05:57:20.499Z,9.70
2022-08-28T05:59:22.223Z,9.43
2022-08-28T06:01:30.724Z,9.93
2022-08-28T06:03:32.645Z,9.52
2022-08-28T06:05:34.395Z,10.02
2022-08-28T06:07:36.417Z,9.95
2022-08-28T06:09:38.434Z,9.30
2022-08-28T06:11:44.624Z,8.77
2022-08-28T06:13:48.385Z,9.43
2022-08-28T06:15:50.141Z,9.23
2022-08-28T06:17:52.145Z,9.40
2022-08-28T06:19:53.868Z,9.32
2022-08-28T06:21:58.037Z,8.77
2022-08-28T06:24:00.042Z,9.05
2022-08-28T06:26:01.792Z,9.50
2022-08-28T06:28:04.034Z,10.45
2022-08-28T06:30:06.799Z,9.20
2022-08-28T06:32:08.592Z,9.27
2022-08-28T06:34:10.399Z,8.75
2022-08-28T06:36:12.479Z,8.60
2022-08-28T06:38:14.714Z,8.32
2022-08-28T06:40:16.809Z,8.55
2022-08-28T06:42:18.612Z,9.98
2022-08-28T06:44:21.671Z,8.88
2022-08-28T06:46:23.932Z,10.02
2022-08-28T06:48:28.663Z,9.95
2022-08-28T06:50:30.384Z,8.10
2022-08-28T06:52:32.115Z,8.55
2022-08-28T06:54:33.881Z,8.70
2022-08-28T06:56:35.857Z,8.80
2022-08-28T06:58:50.118Z,9.07
2022-08-28T07:01:03.101Z,8.85
2022-08-28T07:03:05.634Z,9.07
2022-08-28T07:05:07.669Z,8.75
2022-08-28T07:07:09.403Z,8.57
2022-08-28T07:09:17.483Z,8.30
2022-08-28T07:11:26.101Z,8.32
2022-08-28T07:13:32.110Z,8.55
2022-08-28T07:15:35.477Z,8.00
2022-08-28T07:17:44.159Z,8.43
2022-08-28T07:19:45.881Z,8.48
2022-08-28T07:21:47.991Z,8.73
2022-08-28T07:23:50.390Z,9.23
2022-08-28T07:25:52.537Z,8.77
2022-08-28T07:27:54.278Z,8.48
2022-08-28T07:29:56.030Z,9.45
2022-08-28T07:31:57.753Z,8.02
2022-08-28T07:33:59.600Z,8.50
2022-08-28T07:36:01.411Z,8.48
2022-08-28T07:38:03.221Z,8.82
2022-08-28T07:40:05.331Z,8.73
2022-08-28T07:42:10.175Z,8.82
2022-08-28T07:44:14.013Z,8.93
2022-08-28T07:46:15.820Z,8.40
2022-08-28T07:48:18.118Z,9.07
2022-08-28T07:50:23.214Z,8.98
2022-08-28T07:52:24.965Z,9.13
2022-08-28T07:54:27.125Z,8.82
2022-08-28T07:56:29.097Z,9.50
2022-08-28T07:58:30.975Z,9.57
2022-08-28T08:00:32.752Z,9.07
2022-08-28T08:02:34.468Z,9.00
2022-08-28T08:04:36.299Z,9.02
2022-08-28T08:06:39.329Z,9.00
2022-08-28T08:08:41.106Z,9.43
2022-08-28T08:10:42.933Z,9.55
2022-08-28T08:12:45.018Z,8.85
2022-08-28T08:14:47.166Z,10.03
2022-08-28T08:16:49.663Z,9.57
2022-08-28T08:18:52.588Z,9.20
2022-08-28T08:20:54.332Z,9.82
2022-08-28T08:22:56.072Z,9.77
2022-08-28T08:24:57.869Z,9.63
2022-08-28T08:27:02.109Z,10.18
2022-08-28T08:29:04.062Z,10.85
2022-08-28T08:31:14.459Z,10.38
2022-08-28T08:33:16.461Z,11.25
2022-08-28T08:35:18.357Z,10.18
2022-08-28T08:37:20.189Z,10.73
2022-08-28T08:39:21.963Z,9.65
2022-08-28T08:41:32.401Z,10.45
2022-08-28T08:43:51.289Z,10.38
2022-08-28T08:45:53.340Z,10.15
2022-08-28T08:47:56.932Z,9.95
2022-08-28T08:50:00.418Z,9.45
2022-08-28T08:52:22.469Z,10.30
2022-08-28T08:54:24.217Z,9.57
2022-08-28T08:56:35.014Z,9.32
2022-08-28T08:58:42.982Z,9.90
2022-08-28T09:01:20.466Z,9.75
2022-08-28T09:03:32.477Z,9.25
2022-08-28T09:06:00.913Z,10.27
2022-08-28T09:08:05.187Z,9.77
2022-08-28T09:10:09.933Z,9.05
2022-08-28T09:12:19.550Z,10.27
2022-08-28T09:14:55.533Z,9.88
2022-08-28T09:16:58.595Z,9.38
2022-08-28T09:19:01.431Z,9.43
2022-08-28T09:21:03.210Z,9.35
2022-08-28T09:23:12.579Z,9.63
2022-08-28T09:25:52.402Z,9.32
2022-08-28T09:27:54.481Z,9.15
2022-08-28T09:30:07.600Z,9.38
2022-08-28T09:32:23.025Z,9.32
2022-08-28T09:34:29.594Z,9.35
2022-08-28T09:36:35.518Z,9.10
2022-08-28T09:38:37.264Z,9.15
2022-08-28T09:40:39.109Z,8.82
2022-08-28T09:42:40.901Z,8.40
2022-08-28T09:44:59.790Z,8.80
2022-08-28T09:47:02.052Z,8.48
2022-08-28T09:49:14.547Z,8.95
2022-08-28T09:51:22.358Z,8.88
2022-08-28T09:53:24.120Z,7.95
2022-08-28T09:55:59.069Z,8.10
2022-08-28T09:58:01.351Z,10.18
2022-08-28T10:00:04.406Z,8.65
2022-08-28T10:02:33.848Z,9.10
2022-08-28T10:04:47.489Z,8.93
2022-08-28T10:06:51.113Z,9.10
2022-08-28T10:09:22.168Z,9.82
2022-08-28T10:11:44.562Z,9.30
2022-08-28T10:13:58.295Z,9.52
2022-08-28T10:18:49.411Z,9.32
2022-08-28T10:20:53.763Z,9.32
2022-08-28T10:23:22.760Z,9.60
2022-08-28T10:25:36.993Z,9.15
2022-08-28T10:27:51.630Z,9.02
2022-08-28T10:30:06.940Z,9.68
2022-08-28T10:32:25.552Z,9.25
2022-08-28T10:34:40.413Z,9.32
2022-08-28T10:36:46.954Z,9.43
2022-08-28T10:39:11.661Z,9.85
2022-08-28T10:41:25.515Z,9.07
2022-08-28T10:43:36.435Z,9.65
2022-08-28T10:45:39.649Z,9.15
2022-08-28T10:47:45.967Z,8.90
2022-08-28T10:49:50.921Z,8.68
2022-08-28T10:52:19.671Z,8.43
2022-08-28T10:55:09.559Z,9.30
2022-08-28T10:57:59.552Z,9.27
2022-08-28T11:00:08.865Z,9.32
2022-08-28T11:02:12.921Z,9.70
2022-08-28T11:04:25.153Z,9.77
2022-08-28T11:06:40.848Z,9.43
2022-08-28T11:08:50.068Z,9.10
2022-08-28T11:10:53.668Z,8.98
2022-08-28T11:12:55.979Z,8.95
2022-08-28T11:14:58.813Z,7.78
2022-08-28T11:17:28.400Z,8.38
2022-08-28T11:19:52.519Z,9.60
2022-08-28T11:22:10.551Z,9.35
2022-08-28T11:24:18.704Z,9.75
2022-08-28T11:26:32.511Z,8.77
2022-08-28T11:28:35.193Z,10.00
2022-08-28T11:30:41.214Z,9.60
2022-08-28T11:32:52.294Z,10.18
2022-08-28T11:35:25.787Z,9.43
2022-08-28T11:37:45.372Z,10.70
2022-08-28T11:39:47.172Z,9.15
2022-08-28T11:42:10.701Z,8.43
2022-08-28T11:44:12.534Z,8.18
2022-08-28T11:46:28.035Z,8.38
2022-08-28T11:48:47.408Z,8.48
2022-08-28T11:51:11.332Z,7.35
2022-08-28T11:56:21.746Z,6.93
2022-08-28T11:58:38.740Z,8.20
2022-08-28T12:00:49.591Z,8.48
2022-08-28T12:03:13.945Z,8.60
2022-08-28T12:05:15.909Z,8.05
2022-08-28T12:07:21.362Z,8.23
2022-08-28T12:09:42.916Z,8.43
2022-08-28T12:11:44.603Z,7.75
2022-08-28T12:13:52.143Z,8.35
2022-08-28T12:16:06.720Z,8.15
2022-08-28T12:18:11.553Z,8.07
2022-08-28T12:20:23.249Z,7.88
2022-08-28T12:22:41.220Z,8.05
2022-08-28T12:24:58.586Z,7.63
2022-08-28T12:27:02.094Z,7.75
2022-08-28T12:29:20.783Z,7.60
2022-08-28T12:31:40.031Z,7.57
2022-08-28T12:34:06.685Z,7.75
2022-08-28T12:36:16.960Z,7.70
2022-08-28T12:38:21.857Z,7.22
2022-08-28T12:40:28.511Z,7.22
2022-08-28T12:42:35.078Z,7.13
2022-08-28T12:44:36.900Z,7.72
2022-08-28T12:46:42.140Z,8.40
2022-08-28T12:49:02.472Z,8.27
2022-08-28T12:51:24.621Z,7.18
2022-08-28T12:53:26.621Z,7.47
2022-08-28T12:55:31.430Z,8.20
2022-08-28T12:57:33.249Z,8.48
2022-08-28T12:59:38.751Z,8.35
2022-08-28T13:01:40.725Z,8.85
2022-08-28T13:03:49.965Z,8.63
2022-08-28T13:06:03.508Z,8.52
2022-08-28T13:08:09.600Z,8.02
2022-08-28T13:10:26.808Z,8.07
2022-08-28T13:12:55.171Z,8.20
2022-08-28T13:14:58.543Z,7.93
2022-08-28T13:17:00.359Z,8.50
2022-08-28T13:19:04.897Z,8.25
2022-08-28T13:21:32.983Z,8.45
2022-08-28T13:23:35.996Z,8.98
2022-08-28T13:25:38.223Z,9.13
2022-08-28T13:27:40.054Z,8.80
2022-08-28T13:30:08.012Z,9.82
2022-08-28T13:32:16.270Z,10.43
2022-08-28T13:34:17.957Z,12.38
2022-08-28T13:36:22.709Z,11.63
2022-08-28T13:38:25.112Z,11.45
2022-08-28T13:40:57.389Z,12.68
2022-08-28T13:43:06.303Z,11.50
2022-08-28T13:45:08.672Z,12.27
2022-08-28T13:47:10.445Z,12.50
2022-08-28T13:49:12.183Z,12.70
2022-08-28T13:51:20.621Z,12.63
2022-08-28T13:53:22.975Z,12.57
2022-08-28T13:55:25.004Z,11.38
2022-08-28T13:57:28.062Z,12.57
2022-08-28T13:59:30.590Z,12.75
2022-08-28T14:01:40.187Z,12.40
2022-08-28T14:03:44.290Z,12.02
2022-08-28T14:05:46.121Z,11.63
2022-08-28T14:07:47.863Z,12.05
2022-08-28T14:09:55.470Z,12.63
2022-08-28T14:11:58.101Z,11.85
2022-08-28T14:13:59.874Z,12.25
2022-08-28T14:16:05.913Z,12.77
2022-08-28T14:18:07.777Z,12.70
2022-08-28T14:20:09.919Z,12.05
2022-08-28T14:22:11.650Z,11.32
2022-08-28T14:24:13.629Z,11.90
2022-08-28T14:26:15.337Z,11.77
2022-08-28T14:28:17.556Z,12.00
2022-08-28T14:30:19.370Z,12.40
2022-08-28T14:32:21.327Z,11.40
2022-08-28T14:34:23.704Z,11.25
2022-08-28T14:36:28.614Z,12.68
2022-08-28T14:38:30.405Z,11.63
2022-08-28T14:40:32.186Z,12.38
2022-08-28T14:42:34.317Z,11.90
2022-08-28T14:44:36.143Z,11.50
2022-08-28T14:46:38.085Z,12.13
2022-08-28T14:48:39.807Z,12.70
2022-08-28T14:50:43.944Z,12.02
2022-08-28T14:52:45.702Z,12.00
2022-08-28T14:54:52.493Z,11.82
2022-08-28T14:56:54.911Z,12.50
2022-08-28T14:58:58.141Z,11.75
2022-08-28T15:03:01.889Z,12.70
2022-08-28T15:05:03.879Z,13.00
2022-08-28T15:07:10.400Z,12.82
2022-08-28T15:09:13.992Z,12.80
2022-08-28T15:11:19.255Z,11.88
2022-08-28T15:13:21.927Z,11.90
2022-08-28T15:15:23.822Z,12.93
2022-08-28T15:17:34.158Z,12.93
2022-08-28T15:19:36.403Z,12.55
2022-08-28T15:21:46.238Z,11.65
2022-08-28T15:23:56.096Z,12.75
2022-08-28T15:25:57.817Z,12.85
2022-08-28T15:27:59.614Z,12.15
2022-08-28T15:30:01.351Z,12.80
2022-08-28T15:32:03.473Z,13.13
2022-08-28T15:34:09.892Z,12.68
2022-08-28T15:36:15.454Z,13.23
2022-08-28T15:38:17.273Z,13.48
2022-08-28T15:40:20.293Z,13.68
2022-08-28T15:42:22.041Z,13.73
2022-08-28T15:44:24.344Z,13.75
2022-08-28T15:46:26.718Z,13.93
2022-08-28T15:48:30.332Z,13.40
2022-08-28T15:50:32.263Z,13.50
2022-08-28T15:52:34.005Z,13.60
2022-08-28T15:54:35.742Z,13.18
2022-08-28T15:56:37.521Z,13.13
2022-08-28T15:58:39.574Z,13.95
2022-08-28T16:00:41.562Z,13.95
2022-08-28T16:02:43.378Z,13.90
2022-08-28T16:04:45.098Z,13.73
2022-08-28T16:06:47.054Z,13.52
2022-08-28T16:08:49.997Z,13.38
2022-08-28T16:10:52.991Z,14.18
2022-08-28T16:12:57.450Z,14.25
2022-08-28T16:14:59.832Z,14.00
2022-08-28T16:17:05.738Z,14.38
2022-08-28T16:19:12.714Z,14.05
2022-08-28T16:21:15.618Z,14.05
2022-08-28T16:23:17.409Z,13.65
2022-08-28T16:25:19.389Z,14.00
2022-08-28T16:27:21.484Z,14.27
2022-08-28T16:29:23.242Z,13.63
2022-08-28T16:31:25.061Z,14.25
2022-08-28T16:33:26.899Z,13.48
2022-08-28T16:35:28.621Z,14.15
2022-08-28T16:37:39.669Z,13.30
2022-08-28T16:39:41.978Z,13.43
2022-08-28T16:41:44.027Z,13.80
2022-08-28T16:43:46.844Z,14.07
2022-08-28T16:45:48.617Z,13.63
2022-08-28T16:47:50.627Z,13.70
2022-08-28T16:49:59.764Z,12.73
2022-08-28T16:52:01.654Z,12.88
2022-08-28T16:54:03.566Z,12.82
2022-08-28T16:56:05.417Z,12.80
2022-08-28T16:58:07.306Z,13.20
2022-08-28T17:00:11.917Z,13.95
2022-08-28T17:02:15.983Z,13.15
2022-08-28T17:04:18.386Z,13.25
2022-08-28T17:06:26.933Z,12.57
2022-08-28T17:08:28.819Z,14.48
2022-08-28T17:10:30.582Z,15.20
2022-08-28T17:12:32.644Z,15.73
2022-08-28T17:14:34.442Z,15.18
2022-08-28T17:16:36.249Z,14.75
2022-08-28T17:18:40.954Z,14.07
2022-08-28T17:20:49.981Z,14.90
2022-08-28T17:22:51.699Z,15.43
2022-08-28T17:24:53.486Z,15.20
2022-08-28T17:26:55.214Z,15.88
2022-08-28T17:28:56.985Z,15.13
2022-08-28T17:30:59.022Z,13.77
2022-08-28T17:33:00.795Z,15.30
2022-08-28T17:35:03.409Z,14.85
2022-08-28T17:37:05.202Z,15.40
2022-08-28T17:39:12.040Z,15.68
2022-08-28T17:41:14.914Z,14.75
2022-08-28T17:43:16.682Z,15.18
2022-08-28T17:45:18.504Z,14.82
2022-08-28T17:47:27.220Z,16.00
2022-08-28T17:49:32.656Z,15.60
2022-08-28T17:51:42.264Z,16.63
2022-08-28T17:53:45.729Z,16.33
2022-08-28T17:55:47.461Z,15.27
2022-08-28T17:57:49.265Z,15.82
2022-08-28T17:59:51.148Z,16.65
2022-08-28T18:01:53.589Z,15.35
2022-08-28T18:03:55.420Z,17.50
2022-08-28T18:05:58.153Z,18.23
2022-08-28T18:07:59.959Z,16.77
2022-08-28T18:10:01.752Z,14.30
2022-08-28T18:12:04.434Z,12.85
2022-08-28T18:14:07.180Z,13.50
2022-08-28T18:16:09.219Z,12.48
2022-08-28T18:18:12.708Z,12.35
2022-08-28T18:22:16.297Z,6.53
2022-08-28T18:24:18.074Z,6.15
2022-08-28T18:26:20.191Z,5.65
2022-08-28T18:28:24.562Z,5.78
2022-08-28T18:30:26.475Z,6.03
2022-08-28T18:32:28.226Z,5.20
2022-08-28T18:34:29.993Z,4.78
2022-08-28T18:36:31.791Z,5.15
2022-08-28T18:38:33.657Z,4.40
2022-08-28T18:40:35.992Z,4.57
2022-08-28T18:42:37.834Z,3.88
2022-08-28T18:44:39.574Z,4.32
2022-08-28T18:46:42.711Z,4.30
2022-08-28T18:48:44.540Z,3.63
2022-08-28T18:50:47.420Z,3.67
2022-08-28T18:52:53.463Z,4.00
2022-08-28T18:55:00.548Z,4.60
2022-08-28T18:57:04.060Z,3.90
2022-08-28T18:59:07.277Z,4.30
2022-08-28T19:01:10.252Z,4.30
2022-08-28T19:03:12.433Z,4.50
2022-08-28T19:05:14.345Z,4.70
2022-08-28T19:07:16.087Z,4.75
2022-08-28T19:09:20.284Z,4.82
2022-08-28T19:11:22.662Z,6.13
2022-08-28T19:13:24.379Z,6.63
2022-08-28T19:15:26.167Z,7.85
2022-08-28T19:17:28.296Z,6.68
2022-08-28T19:19:32.755Z,8.20
2022-08-28T19:21:34.484Z,8.25
2022-08-28T19:23:36.791Z,7.50
2022-08-28T19:25:38.571Z,7.47
2022-08-28T19:27:41.622Z,8.75
2022-08-28T19:29:43.347Z,8.35
2022-08-28T19:31:45.108Z,8.50
2022-08-28T19:33:47.735Z,9.65
2022-08-28T19:35:49.566Z,10.20
2022-08-28T19:37:51.933Z,12.50
2022-08-28T19:39:56.037Z,9.70
2022-08-28T19:41:58.270Z,9.68
2022-08-28T19:44:00.285Z,10.15
2022-08-28T19:46:02.049Z,10.60
2022-08-28T19:48:04.002Z,8.63
2022-08-28T19:50:14.368Z,8.80
2022-08-28T19:52:16.105Z,9.65
2022-08-28T19:54:17.872Z,7.95
2022-08-28T19:56:19.636Z,8.38
2022-08-28T19:58:21.453Z,8.00
2022-08-28T20:00:27.991Z,7.47
2022-08-28T20:02:29.758Z,7.30
2022-08-28T20:04:32.126Z,8.25
2022-08-28T20:06:34.902Z,8.05
2022-08-28T20:08:36.701Z,7.95
2022-08-28T20:10:38.836Z,7.47
2022-08-28T20:12:41.443Z,7.95
2022-08-28T20:14:49.885Z,8.35
2022-08-28T20:16:52.047Z,10.55
2022-08-28T20:18:54.892Z,9.70
2022-08-28T20:20:56.662Z,7.75
2022-08-28T20:22:58.438Z,8.55
2022-08-28T20:25:01.135Z,8.77
2022-08-28T20:27:02.901Z,8.95
2022-08-28T20:29:06.753Z,9.18
2022-08-28T20:31:10.692Z,8.43
2022-08-28T20:33:13.372Z,8.30
2022-08-28T20:35:15.219Z,7.83
2022-08-28T20:37:16.984Z,8.70
2022-08-28T20:39:20.526Z,9.10
2022-08-28T20:43:23.905Z,9.88
2022-08-28T20:45:25.717Z,10.95
2022-08-28T20:47:28.668Z,10.75
2022-08-28T20:49:30.400Z,11.23
2022-08-28T20:51:32.166Z,10.98
2022-08-28T20:53:37.282Z,9.75
2022-08-28T20:55:39.720Z,9.98
2022-08-28T20:57:41.602Z,9.63
2022-08-28T20:59:44.823Z,9.13
2022-08-28T21:01:46.683Z,9.30
2022-08-28T21:03:48.537Z,9.90
2022-08-28T21:05:50.649Z,10.32
2022-08-28T21:07:52.393Z,9.32
2022-08-28T21:10:04.879Z,9.77
2022-08-28T21:12:08.541Z,10.25
2022-08-28T21:14:10.752Z,9.45
2022-08-28T21:16:12.523Z,9.88
2022-08-28T21:18:14.463Z,9.98
2022-08-28T21:20:16.747Z,10.13
2022-08-28T21:22:18.860Z,10.85
2022-08-28T21:24:22.175Z,9.73
2022-08-28T21:26:24.255Z,11.07
2022-08-28T21:28:26.342Z,11.75
2022-08-28T21:30:28.505Z,11.68
2022-08-28T21:34:33.378Z,10.73
2022-08-28T21:36:37.143Z,15.20
2022-08-28T21:38:39.228Z,13.63
2022-08-28T21:40:41.678Z,13.05
2022-08-28T21:42:44.069Z,11.25
2022-08-28T21:44:51.498Z,12.05
2022-08-28T21:46:53.826Z,11.32
2022-08-28T21:48:55.649Z,11.60
2022-08-28T21:51:04.550Z,11.95
2022-08-28T21:53:06.548Z,11.88
2022-08-28T21:55:11.765Z,11.95
2022-08-28T21:57:14.154Z,12.10
2022-08-28T21:59:15.875Z,11.77
2022-08-28T22:01:18.661Z,10.68
2022-08-28T22:03:21.659Z,11.35
2022-08-28T22:05:23.529Z,10.93
2022-08-28T22:07:25.249Z,10.85
2022-08-28T22:09:27.440Z,10.82
2022-08-28T22:11:29.281Z,11.38
2022-08-28T22:13:31.031Z,12.23
2022-08-28T22:15:33.269Z,12.20
2022-08-28T22:17:34.993Z,11.50
2022-08-28T22:19:36.724Z,12.27
2022-08-28T22:21:38.507Z,12.48
2022-08-28T22:23:40.661Z,12.73
2022-08-28T22:25:42.923Z,12.52
2022-08-28T22:27:44.688Z,12.35
2022-08-28T22:29:46.463Z,12.13
2022-08-28T22:31:48.256Z,12.63
2022-08-28T22:33:50.344Z,12.07
2022-08-28T22:35:52.773Z,12.77
2022-08-28T22:37:54.988Z,12.50
2022-08-28T22:39:56.769Z,13.07
2022-08-28T22:41:58.566Z,13.48
2022-08-28T22:44:00.668Z,13.73
2022-08-28T22:46:03.540Z,13.38
2022-08-28T22:48:05.853Z,13.35
2022-08-28T22:50:08.154Z,13.90
2022-08-28T22:52:10.814Z,13.30
2022-08-28T22:54:12.541Z,14.00
2022-08-28T22:56:16.044Z,14.35
2022-08-28T22:58:17.779Z,14.15
2022-08-28T23:00:23.010Z,14.45
2022-08-28T23:02:27.372Z,14.07
2022-08-28T23:04:29.414Z,13.50
2022-08-28T23:06:32.255Z,14.05
2022-08-28T23:08:34.651Z,14.02
2022-08-28T23:10:58.144Z,14.30
2022-08-28T23:12:58.155Z,14.88
2022-08-28T23:15:00.132Z,14.75
2022-08-28T23:17:01.946Z,15.20
2022-08-28T23:19:09.196Z,15.25
2022-08-28T23:21:11.280Z,14.43
2022-08-28T23:23:13.186Z,13.88
2022-08-28T23:25:18.850Z,13.75
2022-08-28T23:27:35.750Z,13.73
2022-08-28T23:29:38.205Z,13.60
2022-08-28T23:31:40.504Z,13.85
2022-08-28T23:33:42.450Z,14.77
2022-08-28T23:35:44.259Z,14.23
2022-08-28T23:37:48.872Z,13.85
2022-08-28T23:39:54.586Z,13.52
2022-08-28T23:41:56.411Z,13.10
2022-08-28T23:43:58.196Z,13.43
2022-08-28T23:46:00.181Z,13.25
2022-08-28T23:48:02.078Z,12.90
2022-08-28T23:50:06.846Z,13.18
2022-08-28T23:52:08.613Z,12.02
2022-08-28T23:54:11.827Z,12.20
2022-08-28T23:56:13.960Z,12.10
2022-08-28T23:58:16.486Z,12.05
